sensor_id;sensor_type;location;lat;lon;timestamp;P1;durP1;ratioP1;P2;durP2;ratioP2
76788;SDS011;65740;52.464;13.446;2023-04-24T00:02:13;3.13;;;3.00;;
76788;SDS011;65740;52.464;13.446;2023-04-24T00:04:39;3.10;;;2.93;;
76788;SDS011;65740;52.464;13.446;2023-04-24T00:07:06;3.87;;;3.67;;
76788;SDS011;65740;52.464;13.446;2023-04-24T00:09:32;3.10;;;3.00;;
76788;SDS011;65740;52.464;13.446;2023-04-24T00:11:58;3.53;;;3.33;;
76788;SDS011;65740;52.464;13.446;2023-04-24T00:14:24;3.60;;;3.40;;
76788;SDS011;65740;52.464;13.446;2023-04-24T00:16:50;3.80;;;3.20;;
76788;SDS011;65740;52.464;13.446;2023-04-24T00:19:16;3.50;;;3.30;;
76788;SDS011;65740;52.464;13.446;2023-04-24T00:21:42;3.33;;;3.13;;
76788;SDS011;65740;52.464;13.446;2023-04-24T00:24:08;3.67;;;3.47;;
76788;SDS011;65740;52.464;13.446;2023-04-24T00:26:34;3.87;;;3.67;;
76788;SDS011;65740;52.464;13.446;2023-04-24T00:28:59;3.23;;;3.03;;
76788;SDS011;65740;52.464;13.446;2023-04-24T00:31:25;3.70;;;3.50;;
76788;SDS011;65740;52.464;13.446;2023-04-24T00:33:51;3.80;;;3.60;;
76788;SDS011;65740;52.464;13.446;2023-04-24T00:36:16;4.00;;;3.80;;
76788;SDS011;65740;52.464;13.446;2023-04-24T00:38:44;3.40;;;3.20;;
76788;SDS011;65740;52.464;13.446;2023-04-24T00:41:10;3.20;;;3.00;;
76788;SDS011;65740;52.464;13.446;2023-04-24T00:43:36;3.60;;;3.40;;
76788;SDS011;65740;52.464;13.446;2023-04-24T00:46:01;3.20;;;3.00;;
76788;SDS011;65740;52.464;13.446;2023-04-24T00:48:27;3.57;;;3.37;;
76788;SDS011;65740;52.464;13.446;2023-04-24T00:50:53;3.77;;;3.47;;
76788;SDS011;65740;52.464;13.446;2023-04-24T00:53:18;3.83;;;3.63;;
76788;SDS011;65740;52.464;13.446;2023-04-24T00:55:44;4.23;;;3.93;;
76788;SDS011;65740;52.464;13.446;2023-04-24T00:58:10;3.13;;;3.00;;
76788;SDS011;65740;52.464;13.446;2023-04-24T01:00:37;3.30;;;3.10;;
76788;SDS011;65740;52.464;13.446;2023-04-24T01:03:04;3.43;;;3.23;;
76788;SDS011;65740;52.464;13.446;2023-04-24T01:05:31;3.10;;;2.97;;
76788;SDS011;65740;52.464;13.446;2023-04-24T01:07:57;3.40;;;3.20;;
76788;SDS011;65740;52.464;13.446;2023-04-24T01:10:24;3.30;;;3.10;;
76788;SDS011;65740;52.464;13.446;2023-04-24T01:12:52;3.40;;;3.20;;
76788;SDS011;65740;52.464;13.446;2023-04-24T01:15:18;3.53;;;3.33;;
76788;SDS011;65740;52.464;13.446;2023-04-24T01:17:44;3.30;;;3.10;;
76788;SDS011;65740;52.464;13.446;2023-04-24T01:20:10;3.30;;;3.10;;
76788;SDS011;65740;52.464;13.446;2023-04-24T01:22:36;3.40;;;3.20;;
76788;SDS011;65740;52.464;13.446;2023-04-24T01:25:01;3.40;;;3.20;;
76788;SDS011;65740;52.464;13.446;2023-04-24T01:27:28;3.07;;;2.97;;
76788;SDS011;65740;52.464;13.446;2023-04-24T01:29:54;3.60;;;3.30;;
76788;SDS011;65740;52.464;13.446;2023-04-24T01:32:19;2.77;;;2.67;;
76788;SDS011;65740;52.464;13.446;2023-04-24T01:34:45;3.33;;;3.13;;
76788;SDS011;65740;52.464;13.446;2023-04-24T01:37:12;3.73;;;3.53;;
76788;SDS011;65740;52.464;13.446;2023-04-24T01:39:38;3.33;;;3.13;;
76788;SDS011;65740;52.464;13.446;2023-04-24T01:42:04;3.97;;;3.77;;
76788;SDS011;65740;52.464;13.446;2023-04-24T01:44:30;3.60;;;3.40;;
76788;SDS011;65740;52.464;13.446;2023-04-24T01:46:56;3.60;;;3.40;;
76788;SDS011;65740;52.464;13.446;2023-04-24T01:49:22;3.57;;;3.37;;
76788;SDS011;65740;52.464;13.446;2023-04-24T01:51:48;3.50;;;3.30;;
76788;SDS011;65740;52.464;13.446;2023-04-24T01:54:13;2.90;;;2.70;;
76788;SDS011;65740;52.464;13.446;2023-04-24T01:56:40;3.27;;;3.07;;
76788;SDS011;65740;52.464;13.446;2023-04-24T01:59:11;3.37;;;3.20;;
76788;SDS011;65740;52.464;13.446;2023-04-24T02:01:37;2.80;;;2.70;;
76788;SDS011;65740;52.464;13.446;2023-04-24T02:04:04;3.73;;;3.53;;
76788;SDS011;65740;52.464;13.446;2023-04-24T02:06:30;2.90;;;2.80;;
76788;SDS011;65740;52.464;13.446;2023-04-24T02:08:56;3.10;;;2.97;;
76788;SDS011;65740;52.464;13.446;2023-04-24T02:11:23;3.10;;;2.90;;
76788;SDS011;65740;52.464;13.446;2023-04-24T02:13:49;3.13;;;2.93;;
76788;SDS011;65740;52.464;13.446;2023-04-24T02:16:15;3.43;;;3.23;;
76788;SDS011;65740;52.464;13.446;2023-04-24T02:18:40;3.20;;;3.00;;
76788;SDS011;65740;52.464;13.446;2023-04-24T02:21:07;3.67;;;3.47;;
76788;SDS011;65740;52.464;13.446;2023-04-24T02:23:33;2.73;;;2.63;;
76788;SDS011;65740;52.464;13.446;2023-04-24T02:25:58;3.60;;;3.40;;
76788;SDS011;65740;52.464;13.446;2023-04-24T02:28:24;3.33;;;3.13;;
76788;SDS011;65740;52.464;13.446;2023-04-24T02:30:50;3.37;;;3.17;;
76788;SDS011;65740;52.464;13.446;2023-04-24T02:33:16;3.23;;;3.03;;
76788;SDS011;65740;52.464;13.446;2023-04-24T02:35:41;3.43;;;3.27;;
76788;SDS011;65740;52.464;13.446;2023-04-24T02:38:07;3.30;;;3.10;;
76788;SDS011;65740;52.464;13.446;2023-04-24T02:40:33;3.47;;;3.27;;
76788;SDS011;65740;52.464;13.446;2023-04-24T02:42:58;3.10;;;3.00;;
76788;SDS011;65740;52.464;13.446;2023-04-24T02:45:24;3.77;;;3.57;;
76788;SDS011;65740;52.464;13.446;2023-04-24T02:47:49;3.43;;;3.23;;
76788;SDS011;65740;52.464;13.446;2023-04-24T02:50:15;3.00;;;2.90;;
76788;SDS011;65740;52.464;13.446;2023-04-24T02:52:41;2.83;;;2.73;;
76788;SDS011;65740;52.464;13.446;2023-04-24T02:55:06;3.40;;;3.20;;
76788;SDS011;65740;52.464;13.446;2023-04-24T02:57:33;3.60;;;3.40;;
76788;SDS011;65740;52.464;13.446;2023-04-24T02:59:59;3.57;;;3.37;;
76788;SDS011;65740;52.464;13.446;2023-04-24T03:02:25;3.17;;;2.97;;
76788;SDS011;65740;52.464;13.446;2023-04-24T03:04:50;3.60;;;3.40;;
76788;SDS011;65740;52.464;13.446;2023-04-24T03:07:16;3.07;;;2.87;;
76788;SDS011;65740;52.464;13.446;2023-04-24T03:09:42;3.20;;;3.00;;
76788;SDS011;65740;52.464;13.446;2023-04-24T03:12:07;3.20;;;3.00;;
76788;SDS011;65740;52.464;13.446;2023-04-24T03:14:33;3.50;;;3.30;;
76788;SDS011;65740;52.464;13.446;2023-04-24T03:16:59;3.23;;;3.03;;
76788;SDS011;65740;52.464;13.446;2023-04-24T03:19:25;3.13;;;2.93;;
76788;SDS011;65740;52.464;13.446;2023-04-24T03:21:51;3.40;;;3.20;;
76788;SDS011;65740;52.464;13.446;2023-04-24T03:24:16;3.17;;;2.97;;
76788;SDS011;65740;52.464;13.446;2023-04-24T03:26:42;3.30;;;3.10;;
76788;SDS011;65740;52.464;13.446;2023-04-24T03:29:07;3.20;;;3.00;;
76788;SDS011;65740;52.464;13.446;2023-04-24T03:31:33;3.17;;;3.07;;
76788;SDS011;65740;52.464;13.446;2023-04-24T03:33:59;3.40;;;3.20;;
76788;SDS011;65740;52.464;13.446;2023-04-24T03:36:24;3.20;;;3.00;;
76788;SDS011;65740;52.464;13.446;2023-04-24T03:38:51;3.50;;;3.30;;
76788;SDS011;65740;52.464;13.446;2023-04-24T03:41:16;3.57;;;3.37;;
76788;SDS011;65740;52.464;13.446;2023-04-24T03:43:42;3.10;;;3.00;;
76788;SDS011;65740;52.464;13.446;2023-04-24T03:46:07;3.60;;;3.40;;
76788;SDS011;65740;52.464;13.446;2023-04-24T03:48:34;2.80;;;2.70;;
76788;SDS011;65740;52.464;13.446;2023-04-24T03:51:00;3.17;;;3.07;;
76788;SDS011;65740;52.464;13.446;2023-04-24T03:53:25;3.30;;;3.10;;
76788;SDS011;65740;52.464;13.446;2023-04-24T03:55:52;3.70;;;3.50;;
76788;SDS011;65740;52.464;13.446;2023-04-24T03:58:18;3.90;;;3.70;;
76788;SDS011;65740;52.464;13.446;2023-04-24T04:00:44;3.80;;;3.60;;
76788;SDS011;65740;52.464;13.446;2023-04-24T04:03:11;3.70;;;3.50;;
76788;SDS011;65740;52.464;13.446;2023-04-24T04:05:38;3.93;;;3.63;;
76788;SDS011;65740;52.464;13.446;2023-04-24T04:08:04;3.80;;;3.60;;
76788;SDS011;65740;52.464;13.446;2023-04-24T04:10:30;3.40;;;3.20;;
76788;SDS011;65740;52.464;13.446;2023-04-24T04:12:56;3.60;;;3.40;;
76788;SDS011;65740;52.464;13.446;2023-04-24T04:15:21;3.70;;;3.50;;
76788;SDS011;65740;52.464;13.446;2023-04-24T04:17:47;3.40;;;3.20;;
76788;SDS011;65740;52.464;13.446;2023-04-24T04:20:12;3.90;;;3.70;;
76788;SDS011;65740;52.464;13.446;2023-04-24T04:22:38;3.20;;;3.00;;
76788;SDS011;65740;52.464;13.446;2023-04-24T04:25:04;3.50;;;3.30;;
76788;SDS011;65740;52.464;13.446;2023-04-24T04:27:30;3.63;;;3.43;;
76788;SDS011;65740;52.464;13.446;2023-04-24T04:30:00;3.03;;;2.90;;
76788;SDS011;65740;52.464;13.446;2023-04-24T04:32:29;3.40;;;3.20;;
76788;SDS011;65740;52.464;13.446;2023-04-24T04:34:59;3.00;;;2.90;;
76788;SDS011;65740;52.464;13.446;2023-04-24T04:37:29;3.40;;;3.20;;
76788;SDS011;65740;52.464;13.446;2023-04-24T04:39:55;3.27;;;3.07;;
76788;SDS011;65740;52.464;13.446;2023-04-24T04:42:20;3.07;;;2.90;;
76788;SDS011;65740;52.464;13.446;2023-04-24T04:44:46;3.63;;;3.43;;
76788;SDS011;65740;52.464;13.446;2023-04-24T04:47:12;3.30;;;3.10;;
76788;SDS011;65740;52.464;13.446;2023-04-24T04:49:38;3.70;;;3.50;;
76788;SDS011;65740;52.464;13.446;2023-04-24T04:52:03;3.20;;;3.10;;
76788;SDS011;65740;52.464;13.446;2023-04-24T04:54:29;3.87;;;3.67;;
76788;SDS011;65740;52.464;13.446;2023-04-24T04:56:55;3.77;;;3.57;;
76788;SDS011;65740;52.464;13.446;2023-04-24T04:59:22;3.70;;;3.50;;
76788;SDS011;65740;52.464;13.446;2023-04-24T05:01:47;3.67;;;3.47;;
76788;SDS011;65740;52.464;13.446;2023-04-24T05:04:13;3.60;;;3.40;;
76788;SDS011;65740;52.464;13.446;2023-04-24T05:06:39;3.93;;;3.73;;
76788;SDS011;65740;52.464;13.446;2023-04-24T05:09:04;3.53;;;3.33;;
76788;SDS011;65740;52.464;13.446;2023-04-24T05:11:32;3.10;;;2.90;;
76788;SDS011;65740;52.464;13.446;2023-04-24T05:13:57;3.60;;;3.37;;
76788;SDS011;65740;52.464;13.446;2023-04-24T05:16:23;3.40;;;3.20;;
76788;SDS011;65740;52.464;13.446;2023-04-24T05:18:49;4.30;;;4.10;;
76788;SDS011;65740;52.464;13.446;2023-04-24T05:21:14;3.40;;;3.20;;
76788;SDS011;65740;52.464;13.446;2023-04-24T05:23:40;3.70;;;3.50;;
76788;SDS011;65740;52.464;13.446;2023-04-24T05:26:06;3.60;;;3.40;;
76788;SDS011;65740;52.464;13.446;2023-04-24T05:28:31;3.27;;;3.17;;
76788;SDS011;65740;52.464;13.446;2023-04-24T05:30:57;3.50;;;3.30;;
76788;SDS011;65740;52.464;13.446;2023-04-24T05:33:24;3.90;;;3.70;;
76788;SDS011;65740;52.464;13.446;2023-04-24T05:35:50;3.70;;;3.50;;
76788;SDS011;65740;52.464;13.446;2023-04-24T05:38:15;3.47;;;3.30;;
76788;SDS011;65740;52.464;13.446;2023-04-24T05:40:45;3.60;;;3.40;;
76788;SDS011;65740;52.464;13.446;2023-04-24T05:43:11;3.47;;;3.27;;
76788;SDS011;65740;52.464;13.446;2023-04-24T05:45:37;3.47;;;3.27;;
76788;SDS011;65740;52.464;13.446;2023-04-24T05:48:03;3.10;;;3.00;;
76788;SDS011;65740;52.464;13.446;2023-04-24T05:50:29;3.60;;;3.40;;
76788;SDS011;65740;52.464;13.446;2023-04-24T05:52:55;3.63;;;3.43;;
76788;SDS011;65740;52.464;13.446;2023-04-24T05:55:23;3.67;;;3.47;;
76788;SDS011;65740;52.464;13.446;2023-04-24T05:57:49;3.67;;;3.47;;
76788;SDS011;65740;52.464;13.446;2023-04-24T06:00:15;3.70;;;3.50;;
76788;SDS011;65740;52.464;13.446;2023-04-24T06:02:40;3.80;;;3.60;;
76788;SDS011;65740;52.464;13.446;2023-04-24T06:05:06;3.20;;;3.00;;
76788;SDS011;65740;52.464;13.446;2023-04-24T06:07:33;4.13;;;3.93;;
76788;SDS011;65740;52.464;13.446;2023-04-24T06:09:59;3.70;;;3.50;;
76788;SDS011;65740;52.464;13.446;2023-04-24T06:12:25;3.40;;;3.20;;
76788;SDS011;65740;52.464;13.446;2023-04-24T06:14:50;3.40;;;3.20;;
76788;SDS011;65740;52.464;13.446;2023-04-24T06:17:16;4.00;;;3.77;;
76788;SDS011;65740;52.464;13.446;2023-04-24T06:19:43;3.97;;;3.77;;
76788;SDS011;65740;52.464;13.446;2023-04-24T06:22:08;4.00;;;3.80;;
76788;SDS011;65740;52.464;13.446;2023-04-24T06:24:34;3.77;;;3.57;;
76788;SDS011;65740;52.464;13.446;2023-04-24T06:27:00;3.43;;;3.23;;
76788;SDS011;65740;52.464;13.446;2023-04-24T06:29:26;3.80;;;3.60;;
76788;SDS011;65740;52.464;13.446;2023-04-24T06:31:52;3.60;;;3.40;;
76788;SDS011;65740;52.464;13.446;2023-04-24T06:34:18;3.40;;;3.20;;
76788;SDS011;65740;52.464;13.446;2023-04-24T06:36:44;3.60;;;3.40;;
76788;SDS011;65740;52.464;13.446;2023-04-24T06:39:11;3.57;;;3.37;;
76788;SDS011;65740;52.464;13.446;2023-04-24T06:41:37;3.53;;;3.33;;
76788;SDS011;65740;52.464;13.446;2023-04-24T06:44:04;3.60;;;3.40;;
76788;SDS011;65740;52.464;13.446;2023-04-24T06:46:30;3.50;;;3.30;;
76788;SDS011;65740;52.464;13.446;2023-04-24T06:48:56;3.80;;;3.60;;
76788;SDS011;65740;52.464;13.446;2023-04-24T06:51:25;3.67;;;3.47;;
76788;SDS011;65740;52.464;13.446;2023-04-24T06:53:52;3.40;;;3.20;;
76788;SDS011;65740;52.464;13.446;2023-04-24T06:56:19;3.70;;;3.50;;
76788;SDS011;65740;52.464;13.446;2023-04-24T06:58:45;3.60;;;3.33;;
76788;SDS011;65740;52.464;13.446;2023-04-24T07:01:11;3.77;;;3.57;;
76788;SDS011;65740;52.464;13.446;2023-04-24T07:03:37;3.23;;;3.10;;
76788;SDS011;65740;52.464;13.446;2023-04-24T07:06:03;3.27;;;3.13;;
76788;SDS011;65740;52.464;13.446;2023-04-24T07:08:29;3.20;;;3.10;;
76788;SDS011;65740;52.464;13.446;2023-04-24T07:10:58;3.70;;;3.50;;
76788;SDS011;65740;52.464;13.446;2023-04-24T07:13:24;3.70;;;3.50;;
76788;SDS011;65740;52.464;13.446;2023-04-24T07:15:50;3.43;;;3.23;;
76788;SDS011;65740;52.464;13.446;2023-04-24T07:18:17;3.30;;;3.10;;
76788;SDS011;65740;52.464;13.446;2023-04-24T07:20:43;3.20;;;3.10;;
76788;SDS011;65740;52.464;13.446;2023-04-24T07:23:09;3.17;;;2.97;;
76788;SDS011;65740;52.464;13.446;2023-04-24T07:25:35;3.20;;;3.07;;
76788;SDS011;65740;52.464;13.446;2023-04-24T07:28:00;2.83;;;2.67;;
76788;SDS011;65740;52.464;13.446;2023-04-24T07:30:26;2.97;;;2.80;;
76788;SDS011;65740;52.464;13.446;2023-04-24T07:32:54;3.30;;;3.10;;
76788;SDS011;65740;52.464;13.446;2023-04-24T07:35:20;3.40;;;3.20;;
76788;SDS011;65740;52.464;13.446;2023-04-24T07:37:46;3.30;;;3.10;;
76788;SDS011;65740;52.464;13.446;2023-04-24T07:40:14;3.33;;;3.13;;
76788;SDS011;65740;52.464;13.446;2023-04-24T07:42:40;3.17;;;3.00;;
76788;SDS011;65740;52.464;13.446;2023-04-24T07:45:06;3.00;;;2.90;;
76788;SDS011;65740;52.464;13.446;2023-04-24T07:47:32;2.90;;;2.80;;
76788;SDS011;65740;52.464;13.446;2023-04-24T07:49:59;3.33;;;3.13;;
76788;SDS011;65740;52.464;13.446;2023-04-24T07:52:24;2.90;;;2.80;;
76788;SDS011;65740;52.464;13.446;2023-04-24T07:54:50;3.60;;;3.40;;
76788;SDS011;65740;52.464;13.446;2023-04-24T07:57:17;3.40;;;3.20;;
76788;SDS011;65740;52.464;13.446;2023-04-24T07:59:43;3.00;;;2.90;;
76788;SDS011;65740;52.464;13.446;2023-04-24T08:02:09;3.13;;;2.93;;
76788;SDS011;65740;52.464;13.446;2023-04-24T08:04:34;3.37;;;3.17;;
76788;SDS011;65740;52.464;13.446;2023-04-24T08:07:00;3.60;;;3.40;;
76788;SDS011;65740;52.464;13.446;2023-04-24T08:09:26;3.10;;;3.00;;
76788;SDS011;65740;52.464;13.446;2023-04-24T08:11:51;3.10;;;3.00;;
76788;SDS011;65740;52.464;13.446;2023-04-24T08:14:18;2.83;;;2.73;;
76788;SDS011;65740;52.464;13.446;2023-04-24T08:16:43;3.17;;;2.97;;
76788;SDS011;65740;52.464;13.446;2023-04-24T08:19:09;2.87;;;2.77;;
76788;SDS011;65740;52.464;13.446;2023-04-24T08:21:35;3.17;;;2.97;;
76788;SDS011;65740;52.464;13.446;2023-04-24T08:24:00;2.93;;;2.83;;
76788;SDS011;65740;52.464;13.446;2023-04-24T08:26:30;2.90;;;2.70;;
76788;SDS011;65740;52.464;13.446;2023-04-24T08:28:55;3.10;;;3.00;;
76788;SDS011;65740;52.464;13.446;2023-04-24T08:31:21;3.07;;;2.97;;
76788;SDS011;65740;52.464;13.446;2023-04-24T08:33:47;3.00;;;2.80;;
76788;SDS011;65740;52.464;13.446;2023-04-24T08:36:13;2.60;;;2.50;;
76788;SDS011;65740;52.464;13.446;2023-04-24T08:38:39;3.07;;;2.87;;
76788;SDS011;65740;52.464;13.446;2023-04-24T08:41:05;3.00;;;2.90;;
76788;SDS011;65740;52.464;13.446;2023-04-24T08:43:32;2.90;;;2.80;;
76788;SDS011;65740;52.464;13.446;2023-04-24T08:46:01;3.40;;;3.20;;
76788;SDS011;65740;52.464;13.446;2023-04-24T08:48:29;3.30;;;3.10;;
76788;SDS011;65740;52.464;13.446;2023-04-24T08:50:55;2.90;;;2.80;;
76788;SDS011;65740;52.464;13.446;2023-04-24T08:53:22;3.17;;;2.83;;
76788;SDS011;65740;52.464;13.446;2023-04-24T08:55:50;3.60;;;3.30;;
76788;SDS011;65740;52.464;13.446;2023-04-24T08:58:16;3.47;;;3.03;;
76788;SDS011;65740;52.464;13.446;2023-04-24T09:00:43;3.33;;;3.13;;
76788;SDS011;65740;52.464;13.446;2023-04-24T09:03:12;3.30;;;2.90;;
76788;SDS011;65740;52.464;13.446;2023-04-24T09:05:40;3.53;;;3.20;;
76788;SDS011;65740;52.464;13.446;2023-04-24T09:08:10;4.10;;;3.70;;
76788;SDS011;65740;52.464;13.446;2023-04-24T09:10:38;4.03;;;3.60;;
76788;SDS011;65740;52.464;13.446;2023-04-24T09:13:05;4.80;;;3.60;;
76788;SDS011;65740;52.464;13.446;2023-04-24T09:15:31;3.10;;;2.90;;
76788;SDS011;65740;52.464;13.446;2023-04-24T09:17:57;3.60;;;3.40;;
76788;SDS011;65740;52.464;13.446;2023-04-24T09:20:23;3.43;;;3.13;;
76788;SDS011;65740;52.464;13.446;2023-04-24T09:22:48;4.67;;;3.50;;
76788;SDS011;65740;52.464;13.446;2023-04-24T09:25:20;3.27;;;3.07;;
76788;SDS011;65740;52.464;13.446;2023-04-24T09:27:46;2.97;;;2.77;;
76788;SDS011;65740;52.464;13.446;2023-04-24T09:30:12;3.93;;;3.50;;
76788;SDS011;65740;52.464;13.446;2023-04-24T09:32:39;3.90;;;3.63;;
76788;SDS011;65740;52.464;13.446;2023-04-24T09:35:14;6.50;;;3.30;;
76788;SDS011;65740;52.464;13.446;2023-04-24T09:37:42;3.57;;;3.27;;
76788;SDS011;65740;52.464;13.446;2023-04-24T09:40:12;3.27;;;3.00;;
76788;SDS011;65740;52.464;13.446;2023-04-24T09:42:46;3.20;;;3.00;;
76788;SDS011;65740;52.464;13.446;2023-04-24T09:45:17;3.33;;;3.13;;
76788;SDS011;65740;52.464;13.446;2023-04-24T09:47:43;4.10;;;3.20;;
76788;SDS011;65740;52.464;13.446;2023-04-24T09:52:42;5.83;;;3.43;;
76788;SDS011;65740;52.464;13.446;2023-04-24T09:55:13;4.23;;;3.23;;
76788;SDS011;65740;52.464;13.446;2023-04-24T09:57:50;4.37;;;3.70;;
76788;SDS011;65740;52.464;13.446;2023-04-24T10:00:18;3.80;;;3.60;;
76788;SDS011;65740;52.464;13.446;2023-04-24T10:03:00;4.40;;;3.40;;
76788;SDS011;65740;52.464;13.446;2023-04-24T10:05:31;4.07;;;3.60;;
76788;SDS011;65740;52.464;13.446;2023-04-24T10:08:00;4.03;;;3.27;;
76788;SDS011;65740;52.464;13.446;2023-04-24T10:10:30;3.57;;;2.93;;
76788;SDS011;65740;52.464;13.446;2023-04-24T10:12:57;3.33;;;3.03;;
76788;SDS011;65740;52.464;13.446;2023-04-24T10:15:23;3.57;;;3.30;;
76788;SDS011;65740;52.464;13.446;2023-04-24T10:17:51;5.00;;;3.57;;
76788;SDS011;65740;52.464;13.446;2023-04-24T10:20:20;4.00;;;3.60;;
76788;SDS011;65740;52.464;13.446;2023-04-24T10:22:48;4.63;;;3.90;;
76788;SDS011;65740;52.464;13.446;2023-04-24T10:25:16;4.03;;;3.73;;
76788;SDS011;65740;52.464;13.446;2023-04-24T10:27:43;5.00;;;4.63;;
76788;SDS011;65740;52.464;13.446;2023-04-24T10:30:11;5.53;;;5.00;;
76788;SDS011;65740;52.464;13.446;2023-04-24T10:32:38;15.47;;;12.23;;
76788;SDS011;65740;52.464;13.446;2023-04-24T10:35:03;12.70;;;8.43;;
76788;SDS011;65740;52.464;13.446;2023-04-24T10:37:35;15.07;;;12.37;;
76788;SDS011;65740;52.464;13.446;2023-04-24T10:40:06;23.70;;;19.10;;
76788;SDS011;65740;52.464;13.446;2023-04-24T10:42:33;25.27;;;16.60;;
76788;SDS011;65740;52.464;13.446;2023-04-24T10:44:59;21.23;;;16.50;;
76788;SDS011;65740;52.464;13.446;2023-04-24T10:47:38;21.90;;;17.70;;
76788;SDS011;65740;52.464;13.446;2023-04-24T10:50:15;26.07;;;18.10;;
76788;SDS011;65740;52.464;13.446;2023-04-24T10:52:44;17.80;;;15.57;;
76788;SDS011;65740;52.464;13.446;2023-04-24T10:55:15;22.43;;;16.97;;
76788;SDS011;65740;52.464;13.446;2023-04-24T11:00:29;24.37;;;17.83;;
76788;SDS011;65740;52.464;13.446;2023-04-24T11:02:55;27.80;;;19.80;;
76788;SDS011;65740;52.464;13.446;2023-04-24T11:05:22;23.70;;;17.20;;
76788;SDS011;65740;52.464;13.446;2023-04-24T11:10:40;19.60;;;17.47;;
76788;SDS011;65740;52.464;13.446;2023-04-24T11:13:09;24.03;;;16.70;;
76788;SDS011;65740;52.464;13.446;2023-04-24T11:15:35;21.90;;;17.37;;
76788;SDS011;65740;52.464;13.446;2023-04-24T11:18:01;18.83;;;16.10;;
76788;SDS011;65740;52.464;13.446;2023-04-24T11:20:26;18.87;;;16.90;;
76788;SDS011;65740;52.464;13.446;2023-04-24T11:22:52;20.03;;;16.40;;
76788;SDS011;65740;52.464;13.446;2023-04-24T11:25:22;21.40;;;16.17;;
76788;SDS011;65740;52.464;13.446;2023-04-24T11:27:49;19.73;;;17.13;;
76788;SDS011;65740;52.464;13.446;2023-04-24T11:30:28;19.57;;;15.63;;
76788;SDS011;65740;52.464;13.446;2023-04-24T11:32:55;18.83;;;15.50;;
76788;SDS011;65740;52.464;13.446;2023-04-24T11:35:27;17.70;;;14.67;;
76788;SDS011;65740;52.464;13.446;2023-04-24T11:37:55;18.37;;;14.60;;
76788;SDS011;65740;52.464;13.446;2023-04-24T11:40:21;18.67;;;15.23;;
76788;SDS011;65740;52.464;13.446;2023-04-24T11:42:48;18.37;;;13.50;;
76788;SDS011;65740;52.464;13.446;2023-04-24T11:47:59;16.73;;;13.70;;
76788;SDS011;65740;52.464;13.446;2023-04-24T11:50:26;18.10;;;13.40;;
76788;SDS011;65740;52.464;13.446;2023-04-24T11:52:52;18.10;;;14.10;;
76788;SDS011;65740;52.464;13.446;2023-04-24T11:57:53;20.40;;;15.33;;
76788;SDS011;65740;52.464;13.446;2023-04-24T12:00:22;18.97;;;13.93;;
76788;SDS011;65740;52.464;13.446;2023-04-24T12:02:50;18.63;;;14.50;;
76788;SDS011;65740;52.464;13.446;2023-04-24T12:05:21;14.30;;;12.90;;
76788;SDS011;65740;52.464;13.446;2023-04-24T12:07:48;17.53;;;12.87;;
76788;SDS011;65740;52.464;13.446;2023-04-24T12:10:21;19.70;;;12.73;;
76788;SDS011;65740;52.464;13.446;2023-04-24T12:12:52;18.70;;;13.70;;
76788;SDS011;65740;52.464;13.446;2023-04-24T12:15:19;16.03;;;13.40;;
76788;SDS011;65740;52.464;13.446;2023-04-24T12:17:45;19.47;;;13.00;;
76788;SDS011;65740;52.464;13.446;2023-04-24T12:20:11;16.40;;;12.30;;
76788;SDS011;65740;52.464;13.446;2023-04-24T12:22:49;16.07;;;12.70;;
76788;SDS011;65740;52.464;13.446;2023-04-24T12:25:31;14.43;;;11.43;;
76788;SDS011;65740;52.464;13.446;2023-04-24T12:30:30;13.00;;;11.63;;
76788;SDS011;65740;52.464;13.446;2023-04-24T12:32:57;13.23;;;10.67;;
76788;SDS011;65740;52.464;13.446;2023-04-24T12:35:24;14.80;;;12.90;;
76788;SDS011;65740;52.464;13.446;2023-04-24T12:37:52;53.83;;;27.20;;
76788;SDS011;65740;52.464;13.446;2023-04-24T12:40:18;138.60;;;47.73;;
76788;SDS011;65740;52.464;13.446;2023-04-24T12:42:45;40.43;;;23.97;;
76788;SDS011;65740;52.464;13.446;2023-04-24T12:45:14;73.07;;;31.40;;
76788;SDS011;65740;52.464;13.446;2023-04-24T12:47:41;74.87;;;30.73;;
76788;SDS011;65740;52.464;13.446;2023-04-24T12:50:08;77.57;;;29.60;;
76788;SDS011;65740;52.464;13.446;2023-04-24T12:52:35;71.53;;;30.50;;
76788;SDS011;65740;52.464;13.446;2023-04-24T12:55:02;72.90;;;28.97;;
76788;SDS011;65740;52.464;13.446;2023-04-24T12:57:29;61.17;;;26.97;;
76788;SDS011;65740;52.464;13.446;2023-04-24T12:59:56;65.63;;;26.43;;
76788;SDS011;65740;52.464;13.446;2023-04-24T13:02:23;63.47;;;27.63;;
76788;SDS011;65740;52.464;13.446;2023-04-24T13:04:49;52.80;;;24.57;;
76788;SDS011;65740;52.464;13.446;2023-04-24T13:07:16;52.53;;;24.53;;
76788;SDS011;65740;52.464;13.446;2023-04-24T13:09:42;54.57;;;24.13;;
76788;SDS011;65740;52.464;13.446;2023-04-24T13:12:09;46.07;;;24.00;;
76788;SDS011;65740;52.464;13.446;2023-04-24T13:14:35;49.57;;;22.93;;
76788;SDS011;65740;52.464;13.446;2023-04-24T13:17:01;45.83;;;21.97;;
76788;SDS011;65740;52.464;13.446;2023-04-24T13:19:28;47.63;;;20.47;;
76788;SDS011;65740;52.464;13.446;2023-04-24T13:21:54;51.63;;;21.50;;
76788;SDS011;65740;52.464;13.446;2023-04-24T13:24:22;47.03;;;22.20;;
76788;SDS011;65740;52.464;13.446;2023-04-24T13:26:51;44.53;;;20.60;;
76788;SDS011;65740;52.464;13.446;2023-04-24T13:29:17;39.20;;;20.10;;
76788;SDS011;65740;52.464;13.446;2023-04-24T13:31:43;43.03;;;19.37;;
76788;SDS011;65740;52.464;13.446;2023-04-24T13:34:09;39.07;;;19.63;;
76788;SDS011;65740;52.464;13.446;2023-04-24T13:36:35;32.53;;;18.73;;
76788;SDS011;65740;52.464;13.446;2023-04-24T13:39:01;40.53;;;19.10;;
76788;SDS011;65740;52.464;13.446;2023-04-24T13:41:29;41.10;;;17.77;;
76788;SDS011;65740;52.464;13.446;2023-04-24T13:43:55;36.53;;;19.00;;
76788;SDS011;65740;52.464;13.446;2023-04-24T13:46:21;39.90;;;17.40;;
76788;SDS011;65740;52.464;13.446;2023-04-24T13:48:46;42.20;;;18.53;;
76788;SDS011;65740;52.464;13.446;2023-04-24T13:51:12;27.67;;;16.73;;
76788;SDS011;65740;52.464;13.446;2023-04-24T13:53:38;34.67;;;16.40;;
76788;SDS011;65740;52.464;13.446;2023-04-24T13:56:04;30.67;;;16.70;;
76788;SDS011;65740;52.464;13.446;2023-04-24T13:58:31;35.57;;;17.73;;
76788;SDS011;65740;52.464;13.446;2023-04-24T14:00:57;31.00;;;16.50;;
76788;SDS011;65740;52.464;13.446;2023-04-24T14:03:23;32.20;;;15.93;;
76788;SDS011;65740;52.464;13.446;2023-04-24T14:05:49;37.33;;;16.80;;
76788;SDS011;65740;52.464;13.446;2023-04-24T14:08:14;32.93;;;16.20;;
76788;SDS011;65740;52.464;13.446;2023-04-24T14:10:40;35.63;;;17.47;;
76788;SDS011;65740;52.464;13.446;2023-04-24T14:13:07;28.13;;;15.20;;
76788;SDS011;65740;52.464;13.446;2023-04-24T14:15:33;23.17;;;15.57;;
76788;SDS011;65740;52.464;13.446;2023-04-24T14:18:00;29.53;;;15.90;;
76788;SDS011;65740;52.464;13.446;2023-04-24T14:20:26;25.40;;;15.23;;
76788;SDS011;65740;52.464;13.446;2023-04-24T14:22:51;24.70;;;14.63;;
76788;SDS011;65740;52.464;13.446;2023-04-24T14:25:18;25.00;;;14.10;;
76788;SDS011;65740;52.464;13.446;2023-04-24T14:27:44;24.53;;;15.63;;
76788;SDS011;65740;52.464;13.446;2023-04-24T14:30:10;25.70;;;13.93;;
76788;SDS011;65740;52.464;13.446;2023-04-24T14:32:38;22.00;;;12.57;;
76788;SDS011;65740;52.464;13.446;2023-04-24T14:35:04;21.60;;;13.90;;
76788;SDS011;65740;52.464;13.446;2023-04-24T14:37:31;29.57;;;14.17;;
76788;SDS011;65740;52.464;13.446;2023-04-24T14:39:57;23.50;;;13.80;;
76788;SDS011;65740;52.464;13.446;2023-04-24T14:42:23;27.00;;;13.53;;